Airfield :
LOGIN :

Register | Disclaimer

   EN    FR    IT 

 










Legend :    VFR   Marginal VFR   IFR   Intensive IFR   Very Intensive IFR
Visi :
Ceiling :
>= 8 km
>= 3000ft
5 to 8 km
1000 to 3000 ft
1500m to 5 km
500 to 1000 ft
800 to 1500m
200 to 500 ft
< 800m
< 200 ft
Symbols :   Thunderstorms  Fog  Heavy snow  Heavy precipitations  Wind > 20 kt
SIGMETs :     Misc.  Thunderstorms  Icing  Turbulence  Mountain Waves  Volcanic Ashes







- Airport Elevation : 614 ft
- IATA code : CRL


EBCI - Charleroi

CURRENT METAR :
  • 210050Z 15006KT 9999 BKN022 03/M01 Q1008 NOSIG

EXPIRED METARs :
  • 210020Z 14006KT 9999 BKN022 03/M01 Q1007 NOSIG
  • 202350Z 13007KT 9999 BKN022 03/M01 Q1007 NOSIG
  • 202320Z 13007KT 110V170 9999 BKN026 03/M01 Q1007 NOSIG
  • 202250Z 14007KT 9999 BKN024 03/M01 Q1006 NOSIG
  • 202220Z 14008KT 9999 BKN024 03/M01 Q1006 NOSIG

TAF TAF EBCI
Valid from the 21 at 00:00 until the 22 at 06:00 UTC


202320Z 2100/2206 12008KT 9999 SCT020
PROB40
TEMPO 2100/2104 3800 SHSNRA BKN012
PROB30
TEMPO 2101/2104 BKN006
TEMPO 2123/2206 BKN006
PROB40
TEMPO 2202/2206 2200 DZ FZDZ BR BKN002
No reported NOTAMs for that airfield.



MET'MAP, your aeronautical weather chart ! - Copyright ORBIFLY December 2007 - Disclaimer

ORBIFLY MET'MAP TEAM :

Programming & Development : Alexandra Zaïnal
Concept & Development : Baudouin d'Aumeries
Co-Development & Prog : Marc-Olivier Méhu
Technical & hardware support : Manuel Goepfert

Contact : metmap@orbifly.com




SOURCES & CREDITS :

   NOAA